Terminal Aerodrome Forecast
Issued by NWS Tampa Bay Area, FL

Home | Current Version | Previous Version | Text Only | Print | Product List | Glossary On
Versions: 1 2 3 4 5 6 7 8 9 10 11 12 13 14 15 16 17 18 19 20 21 22 23 24 25 26
000
FTUS42 KTBW 211730
TAFTPA
TAF
KTPA 211730Z 2118/2224 12010G16KT P6SM SCT040 SCT250
     FM212100 06011KT P6SM VCSH SCT040 SCT250
     FM220200 09007KT P6SM SCT020 BKN100
     FM220600 09006KT P6SM BKN015
     FM221500 14008KT P6SM SCT020 BKN100
     FM221800 22008KT P6SM SCT030 BKN050=

USA.gov is the U.S. government's official web portal to all federal, state and local government web resources and services.